ENA weather

Kenai Municipal Airport
Kenai, Alaska, United States

Public forecast

Using degrees Fahrenheit for public forecast. Weather courtesy of forecast.io.

Current aviation weather report (METAR) for Kenai Municipal Airport

Retrieved 2020/06/04 04:53 UTC (1 hour ago):

PAEN 040453Z 20011KT 10SM CLR 10/05 A2998

Aviation forecast (TAF) for Kenai Municipal Airport

Retrieved 2020-06-04 00:42 UTC (5 hours ago):

TAF PAEN 032340Z 0400/0424 VRB06KT P6SM SCT070 BKN090 FM040300 21012KT P6SM SCT070 BKN120